Spokane, WA (99256)

11:12 PM PST on December 17, 2014 (GMT -0800)
MesoWest SR 2/SR 195 Int. (Garden Springs WA US WA DOT | Change Station
CLOSE
Current Station
Personal Weather Station
Location: Spokane, WA
Elevation: 1899 ft
Nearby Weather Stations

Elev 1899 ft 47.65 °N, 117.43 °W | Updated 57 minutes ago

Rain
Rain
34 °F
Feels Like 34 °F
N
1
Wind Variable Wind from NE
Gusts 2.0 mph

Today
High -- | Low -- °F
--% Chance of Precip.
Yesterday
High -- | Low -- °F
Precip. -- in
7:32 AM 3:58 PM
Waning Crescent, 16% visible
Pressure 30.01 in
Visibility 10.0 miles
Clouds Few 800 ft
Overcast 4800 ft
Windchill 34 °F
Dew Point 33 °F
Humidity 96%
Rainfall -999.00 in
Snow Depth Not available.
UV 0 out of 12
Pollen .10 out of 12
Air Quality Not available.
Flu Activity Not available.
METAR KSFF 180653Z AUTO 08003KT 10SM FEW008 OVC048 03/01 A2998 RMK AO2 SLP163 T00280006

More Conditions Fewer Conditions

Pressure 30.01 in
Visibility 10.0 miles
Clouds Few 800 ft
Overcast 4800 ft
Windchill 34 °F
Dew Point 33 °F
Humidity 96%
Rainfall -999.00 in
Snow Depth Not available.
UV 0 out of 12
Pollen .10 out of 12
Air Quality Not available.
Flu Activity Not available.
METAR KSFF 180653Z AUTO 08003KT 10SM FEW008 OVC048 03/01 A2998 RMK AO2 SLP163 T00280006

More Conditions Fewer Conditions

10-Day Weather Forecast

Almanac

Astronomy

Dec. 17, 2014 Rise Set
Actual Time
Civil Twilight
Nautical Twilight
Astronomical Twilight
Moon
Length of Visible Light
Length of Day
Tomorrow will be .
, % of the Moon is Illuminated

Today's Extremes

State Highs State Lows

Community

WunderPhotos

Upload Photos

1,778,897 photos uploaded!

WunderBlogs® & News

Nearby

Air Quality

  Air Quality AQ Index Pollutant
Not available.

Snow Depth

Station Depth Elevation

Earthquake Activity

City Distance Mag. Time & Date
Minimum magnitude displayed is 2.5.

Coastal Water Temperatures

Place Temperature

Nearby Weather Stations